createdAt,value
2022-11-05T00:00:43.445Z,977
2022-11-05T00:01:53.193Z,977
2022-11-05T00:03:02.765Z,977
2022-11-05T00:04:12.007Z,977
2022-11-05T00:05:21.705Z,977
2022-11-05T00:06:31.400Z,977
2022-11-05T00:07:41.077Z,977
2022-11-05T00:08:50.632Z,977
2022-11-05T00:10:00.340Z,977
2022-11-05T00:11:04.601Z,977
2022-11-05T00:12:09.045Z,977
2022-11-05T00:13:18.697Z,977
2022-11-05T00:14:28.226Z,977
2022-11-05T00:15:37.596Z,977
2022-11-05T00:16:47.273Z,977
2022-11-05T00:17:51.936Z,977
2022-11-05T00:18:56.389Z,977
2022-11-05T00:20:05.718Z,977
2022-11-05T00:21:10.325Z,977
2022-11-05T00:22:19.852Z,977
2022-11-05T00:23:29.453Z,977
2022-11-05T00:24:39.119Z,977
2022-11-05T00:25:48.781Z,977
2022-11-05T00:26:58.106Z,977
2022-11-05T00:28:02.629Z,977
2022-11-05T00:29:06.750Z,977
2022-11-05T00:30:10.821Z,977
2022-11-05T00:31:15.297Z,977
2022-11-05T00:32:19.944Z,977
2022-11-05T00:33:24.373Z,977
2022-11-05T00:34:28.505Z,977
2022-11-05T00:35:32.732Z,977
2022-11-05T00:36:37.265Z,977
2022-11-05T00:37:44.402Z,977
2022-11-05T00:38:45.897Z,977
2022-11-05T00:39:50.057Z,977
2022-11-05T00:40:54.720Z,978
2022-11-05T00:41:59.318Z,977
2022-11-05T00:43:09.264Z,977
2022-11-05T00:44:18.544Z,977
2022-11-05T00:45:28.141Z,978
2022-11-05T00:46:32.364Z,977
2022-11-05T00:47:36.857Z,978
2022-11-05T00:48:46.555Z,977
2022-11-05T00:49:56.289Z,977
2022-11-05T00:51:00.437Z,977
2022-11-05T00:52:04.522Z,977
2022-11-05T00:53:14.389Z,977
2022-11-05T00:54:18.649Z,977
2022-11-05T00:55:23.254Z,977
2022-11-05T00:56:30.426Z,977
2022-11-05T00:57:35.097Z,977
2022-11-05T00:58:39.489Z,977
2022-11-05T00:59:43.621Z,977
2022-11-05T01:00:48.249Z,977
2022-11-05T01:01:52.961Z,978
2022-11-05T01:02:57.520Z,977
2022-11-05T01:04:02.053Z,977
2022-11-05T01:05:06.621Z,977
2022-11-05T01:06:11.196Z,978
2022-11-05T01:07:15.709Z,978
2022-11-05T01:08:20.337Z,978
2022-11-05T01:09:24.916Z,978
2022-11-05T01:10:29.492Z,978
2022-11-05T01:11:34.145Z,978
2022-11-05T01:12:38.716Z,978
2022-11-05T01:13:43.342Z,978
2022-11-05T01:14:47.846Z,978
2022-11-05T01:15:52.064Z,978
2022-11-05T01:16:56.781Z,978
2022-11-05T01:18:01.264Z,978
2022-11-05T01:19:06.309Z,978
2022-11-05T01:20:10.558Z,978
2022-11-05T01:21:14.910Z,978
2022-11-05T01:22:19.472Z,978
2022-11-05T01:23:23.557Z,978
2022-11-05T01:24:28.177Z,978
2022-11-05T01:25:32.745Z,978
2022-11-05T01:26:37.305Z,978
2022-11-05T01:27:41.485Z,978
2022-11-05T01:28:46.187Z,978
2022-11-05T01:29:53.308Z,978
2022-11-05T01:30:57.957Z,978
2022-11-05T01:32:02.425Z,978
2022-11-05T01:33:06.507Z,978
2022-11-05T01:34:10.696Z,978
2022-11-05T01:35:15.000Z,978
2022-11-05T01:36:19.604Z,978
2022-11-05T01:37:24.177Z,978
2022-11-05T01:38:28.295Z,978
2022-11-05T01:39:32.901Z,978
2022-11-05T01:40:36.992Z,978
2022-11-05T01:41:41.264Z,978
2022-11-05T01:42:45.609Z,978
2022-11-05T01:43:49.721Z,978
2022-11-05T01:44:54.028Z,978
2022-11-05T01:45:58.384Z,978
2022-11-05T01:47:02.677Z,978
2022-11-05T01:48:07.404Z,978
2022-11-05T01:49:12.016Z,978
2022-11-05T01:50:24.353Z,978
2022-11-05T01:51:36.465Z,978
2022-11-05T01:52:40.645Z,978
2022-11-05T01:53:44.725Z,978
2022-11-05T01:54:52.073Z,978
2022-11-05T01:55:56.617Z,978
2022-11-05T01:57:06.342Z,978
2022-11-05T01:58:10.857Z,978
2022-11-05T01:59:15.456Z,978
2022-11-05T02:00:24.980Z,978
2022-11-05T02:01:29.297Z,978
2022-11-05T02:02:33.819Z,978
2022-11-05T02:03:38.286Z,978
2022-11-05T02:04:42.332Z,978
2022-11-05T02:05:49.613Z,978
2022-11-05T02:06:54.104Z,978
2022-11-05T02:07:58.212Z,978
2022-11-05T02:09:02.338Z,978
2022-11-05T02:10:09.476Z,978
2022-11-05T02:11:16.481Z,978
2022-11-05T02:12:21.129Z,978
2022-11-05T02:13:25.624Z,978
2022-11-05T02:14:30.224Z,978
2022-11-05T02:15:34.326Z,978
2022-11-05T02:16:44.060Z,978
2022-11-05T02:17:58.863Z,978
2022-11-05T02:19:08.634Z,978
2022-11-05T02:20:20.524Z,978
2022-11-05T02:21:35.553Z,978
2022-11-05T02:22:47.792Z,978
2022-11-05T02:23:55.342Z,978
2022-11-05T02:25:10.238Z,978
2022-11-05T02:26:24.805Z,978
2022-11-05T02:27:31.925Z,978
2022-11-05T02:28:44.315Z,978
2022-11-05T02:29:59.138Z,978
2022-11-05T02:31:06.149Z,978
2022-11-05T02:32:15.477Z,978
2022-11-05T02:33:19.869Z,978
2022-11-05T02:34:29.537Z,978
2022-11-05T02:35:41.736Z,978
2022-11-05T02:36:56.545Z,978
2022-11-05T02:38:06.264Z,978
2022-11-05T02:39:21.049Z,979
2022-11-05T02:40:30.539Z,979
2022-11-05T02:41:42.844Z,979
2022-11-05T02:42:50.076Z,979
2022-11-05T02:43:57.673Z,979
2022-11-05T02:45:12.525Z,979
2022-11-05T02:46:21.977Z,979
2022-11-05T02:47:31.761Z,979
2022-11-05T02:48:42.036Z,979
2022-11-05T02:49:51.802Z,979
2022-11-05T02:50:58.748Z,979
2022-11-05T02:52:05.877Z,979
2022-11-05T02:53:15.593Z,979
2022-11-05T02:54:24.984Z,979
2022-11-05T02:55:37.321Z,979
2022-11-05T02:56:49.503Z,979
2022-11-05T02:57:53.659Z,979
2022-11-05T02:58:58.278Z,979
2022-11-05T03:00:02.357Z,979
2022-11-05T03:01:07.101Z,979
2022-11-05T03:02:14.427Z,979
2022-11-05T03:03:18.523Z,979
2022-11-05T03:04:30.949Z,979
2022-11-05T03:05:35.735Z,979
2022-11-05T03:06:47.740Z,979
2022-11-05T03:08:02.500Z,979
2022-11-05T03:09:07.081Z,979
2022-11-05T03:10:21.681Z,979
2022-11-05T03:11:31.404Z,979
2022-11-05T03:12:41.200Z,979
2022-11-05T03:13:45.692Z,979
2022-11-05T03:14:52.950Z,979
2022-11-05T03:16:02.670Z,979
2022-11-05T03:17:07.144Z,979
2022-11-05T03:18:14.320Z,979
2022-11-05T03:19:21.744Z,979
2022-11-05T03:20:31.632Z,979
2022-11-05T03:21:36.196Z,979
2022-11-05T03:22:48.402Z,979
2022-11-05T03:23:52.932Z,979
2022-11-05T03:24:57.233Z,979
2022-11-05T03:26:01.808Z,979
2022-11-05T03:27:14.544Z,979
2022-11-05T03:28:21.608Z,979
2022-11-05T03:29:26.100Z,979
2022-11-05T03:30:33.268Z,979
2022-11-05T03:31:37.792Z,979
2022-11-05T03:32:42.492Z,979
2022-11-05T03:33:47.084Z,979
2022-11-05T03:34:51.713Z,979
2022-11-05T03:36:01.483Z,979
2022-11-05T03:37:08.962Z,979
2022-11-05T03:38:13.236Z,979
2022-11-05T03:39:22.500Z,979
2022-11-05T03:40:29.797Z,979
2022-11-05T03:41:34.376Z,979
2022-11-05T03:42:38.512Z,979
2022-11-05T03:43:43.096Z,979
2022-11-05T03:44:47.753Z,979
2022-11-05T03:45:52.212Z,979
2022-11-05T03:46:56.449Z,980
2022-11-05T03:48:03.669Z,980
2022-11-05T03:49:08.276Z,980
2022-11-05T03:50:12.772Z,980
2022-11-05T03:51:22.681Z,980
2022-11-05T03:52:37.267Z,980
2022-11-05T03:53:41.680Z,980
2022-11-05T03:54:50.885Z,980
2022-11-05T03:55:55.061Z,980
2022-11-05T03:57:04.220Z,980
2022-11-05T03:58:08.424Z,980
2022-11-05T03:59:12.968Z,980
2022-11-05T04:00:17.295Z,980
2022-11-05T04:01:21.535Z,980
2022-11-05T04:02:25.873Z,980
2022-11-05T04:03:30.099Z,980
2022-11-05T04:04:34.228Z,980
2022-11-05T04:05:38.764Z,980
2022-11-05T04:06:42.944Z,980
2022-11-05T04:07:52.577Z,980
2022-11-05T04:09:01.786Z,980
2022-11-05T04:10:11.116Z,980
2022-11-05T04:11:21.645Z,980
2022-11-05T04:12:31.223Z,980
2022-11-05T04:13:40.960Z,980
2022-11-05T04:14:45.508Z,980
2022-11-05T04:15:49.696Z,980
2022-11-05T04:16:59.365Z,980
2022-11-05T04:18:08.992Z,980
2022-11-05T04:19:13.488Z,980
2022-11-05T04:20:18.109Z,980
2022-11-05T04:21:27.719Z,980
2022-11-05T04:22:37.395Z,980
2022-11-05T04:23:46.636Z,980
2022-11-05T04:24:56.437Z,980
2022-11-05T04:26:01.040Z,980
2022-11-05T04:27:05.596Z,980
2022-11-05T04:28:10.217Z,980
2022-11-05T04:29:14.780Z,980
2022-11-05T04:30:24.197Z,980
2022-11-05T04:31:28.248Z,980
2022-11-05T04:32:32.800Z,980
2022-11-05T04:33:36.996Z,980
2022-11-05T04:34:41.265Z,980
2022-11-05T04:35:45.821Z,980
2022-11-05T04:36:50.400Z,980
2022-11-05T04:37:55.000Z,980
2022-11-05T04:38:59.168Z,980
2022-11-05T04:40:03.844Z,980
2022-11-05T04:41:08.420Z,980
2022-11-05T04:42:12.901Z,980
2022-11-05T04:43:17.569Z,980
2022-11-05T04:44:21.409Z,980
2022-11-05T04:45:25.563Z,980
2022-11-05T04:46:30.171Z,980
2022-11-05T04:47:34.751Z,980
2022-11-05T04:48:39.280Z,980
2022-11-05T04:49:43.334Z,980
2022-11-05T04:50:47.636Z,980
2022-11-05T04:51:52.104Z,980
2022-11-05T04:52:56.329Z,980
2022-11-05T04:54:00.841Z,980
2022-11-05T04:55:05.501Z,980
2022-11-05T04:56:09.613Z,980
2022-11-05T04:57:13.731Z,980
2022-11-05T04:58:18.040Z,980
2022-11-05T04:59:22.097Z,980
2022-11-05T05:00:26.245Z,980
2022-11-05T05:01:30.896Z,980
2022-11-05T05:02:35.096Z,980
2022-11-05T05:03:39.559Z,980
2022-11-05T05:04:43.652Z,980
2022-11-05T05:05:47.720Z,980
2022-11-05T05:06:51.960Z,980
2022-11-05T05:07:56.500Z,980
2022-11-05T05:09:03.683Z,980
2022-11-05T05:10:08.244Z,980
2022-11-05T05:11:12.483Z,980
2022-11-05T05:12:17.015Z,980
2022-11-05T05:13:21.424Z,980
2022-11-05T05:14:26.015Z,980
2022-11-05T05:15:30.549Z,980
2022-11-05T05:16:35.127Z,980
2022-11-05T05:17:39.195Z,980
2022-11-05T05:18:46.161Z,980
2022-11-05T05:19:47.868Z,980
2022-11-05T05:20:57.628Z,980
2022-11-05T05:22:07.171Z,980
2022-11-05T05:23:14.475Z,980
2022-11-05T05:24:18.987Z,980
2022-11-05T05:25:23.466Z,980
2022-11-05T05:26:28.159Z,980
2022-11-05T05:27:32.215Z,980
2022-11-05T05:28:36.311Z,980
2022-11-05T05:29:40.868Z,980
2022-11-05T05:30:45.051Z,980
2022-11-05T05:31:49.587Z,980
2022-11-05T05:32:54.144Z,980
2022-11-05T05:33:58.239Z,980
2022-11-05T05:35:02.375Z,980
2022-11-05T05:36:11.004Z,981
2022-11-05T05:37:11.114Z,981
2022-11-05T05:38:15.695Z,981
2022-11-05T05:39:20.128Z,980
2022-11-05T05:40:24.311Z,980
2022-11-05T05:41:28.863Z,980
2022-11-05T05:42:33.877Z,981
2022-11-05T05:43:37.088Z,981
2022-11-05T05:44:41.145Z,981
2022-11-05T05:45:45.215Z,981
2022-11-05T05:46:49.411Z,981
2022-11-05T05:47:53.855Z,981
2022-11-05T05:48:58.102Z,981
2022-11-05T05:50:02.179Z,981
2022-11-05T05:51:06.923Z,981
2022-11-05T05:52:11.427Z,981
2022-11-05T05:53:16.016Z,981
2022-11-05T05:54:20.440Z,981
2022-11-05T05:55:25.147Z,981
2022-11-05T05:56:29.748Z,981
2022-11-05T05:57:34.364Z,981
2022-11-05T05:58:39.081Z,981
2022-11-05T05:59:43.609Z,981
2022-11-05T06:00:48.099Z,981
2022-11-05T06:01:52.844Z,981
2022-11-05T06:02:57.329Z,981
2022-11-05T06:04:01.412Z,981
2022-11-05T06:05:05.903Z,981
2022-11-05T06:06:10.143Z,981
2022-11-05T06:07:14.688Z,981
2022-11-05T06:08:19.056Z,981
2022-11-05T06:09:23.663Z,981
2022-11-05T06:10:28.290Z,981
2022-11-05T06:11:32.828Z,981
2022-11-05T06:12:37.017Z,981
2022-11-05T06:13:41.556Z,981
2022-11-05T06:14:46.119Z,981
2022-11-05T06:15:50.269Z,981
2022-11-05T06:16:54.896Z,981
2022-11-05T06:17:59.391Z,981
2022-11-05T06:19:03.855Z,981
2022-11-05T06:20:08.087Z,981
2022-11-05T06:21:12.686Z,981
2022-11-05T06:22:16.976Z,981
2022-11-05T06:23:21.261Z,981
2022-11-05T06:24:25.811Z,981
2022-11-05T06:25:30.552Z,981
2022-11-05T06:26:35.083Z,981
2022-11-05T06:27:39.659Z,981
2022-11-05T06:28:44.311Z,981
2022-11-05T06:29:48.763Z,981
2022-11-05T06:30:53.383Z,981
2022-11-05T06:31:57.507Z,981
2022-11-05T06:33:01.489Z,981
2022-11-05T06:34:05.718Z,981
2022-11-05T06:35:09.796Z,982
2022-11-05T06:36:14.446Z,981
2022-11-05T06:37:18.718Z,982
2022-11-05T06:38:22.802Z,981
2022-11-05T06:39:27.446Z,981
2022-11-05T06:40:32.030Z,981
2022-11-05T06:41:50.923Z,981
2022-11-05T06:42:41.022Z,981
2022-11-05T06:43:45.293Z,981
2022-11-05T06:44:49.936Z,982
2022-11-05T06:45:55.073Z,982
2022-11-05T06:46:59.546Z,982
2022-11-05T06:48:03.709Z,982
2022-11-05T06:49:07.795Z,982
2022-11-05T06:50:11.986Z,982
2022-11-05T06:51:16.597Z,982
2022-11-05T06:52:20.896Z,982
2022-11-05T06:53:25.030Z,982
2022-11-05T06:54:29.495Z,982
2022-11-05T06:55:33.849Z,982
2022-11-05T06:56:38.433Z,982
2022-11-05T06:57:43.503Z,982
2022-11-05T06:58:48.021Z,982
2022-11-05T06:59:55.807Z,982
2022-11-05T07:00:56.764Z,982
2022-11-05T07:02:01.463Z,982
2022-11-05T07:03:05.885Z,982
2022-11-05T07:04:10.017Z,982
2022-11-05T07:05:14.488Z,982
2022-11-05T07:06:18.676Z,982
2022-11-05T07:07:22.969Z,982
2022-11-05T07:08:27.194Z,982
2022-11-05T07:09:31.803Z,982
2022-11-05T07:10:37.356Z,982
2022-11-05T07:11:42.873Z,982
2022-11-05T07:12:47.586Z,982
2022-11-05T07:13:52.182Z,982
2022-11-05T07:14:57.144Z,982
2022-11-05T07:16:01.410Z,982
2022-11-05T07:17:06.111Z,982
2022-11-05T07:18:10.594Z,982
2022-11-05T07:19:14.578Z,982
2022-11-05T07:20:18.862Z,982
2022-11-05T07:21:23.962Z,982
2022-11-05T07:22:29.315Z,982
2022-11-05T07:23:34.443Z,982
2022-11-05T07:24:39.710Z,982
2022-11-05T07:25:44.458Z,982
2022-11-05T07:26:49.219Z,982
2022-11-05T07:27:54.436Z,982
2022-11-05T07:28:59.886Z,982
2022-11-05T07:30:05.075Z,982
2022-11-05T07:31:11.095Z,982
2022-11-05T07:32:16.497Z,982
2022-11-05T07:33:21.038Z,982
2022-11-05T07:34:25.986Z,982
2022-11-05T07:35:30.354Z,982
2022-11-05T07:36:34.978Z,982
2022-11-05T07:37:39.552Z,982
2022-11-05T07:38:44.096Z,982
2022-11-05T07:39:48.198Z,982
2022-11-05T07:40:52.298Z,982
2022-11-05T07:41:56.482Z,982
2022-11-05T07:43:00.991Z,982
2022-11-05T07:44:05.158Z,982
2022-11-05T07:45:09.726Z,982
2022-11-05T07:46:14.116Z,982
2022-11-05T07:47:18.450Z,982
2022-11-05T07:48:23.011Z,982
2022-11-05T07:49:27.407Z,982
2022-11-05T07:50:31.548Z,982
2022-11-05T07:51:36.158Z,982
2022-11-05T07:52:40.919Z,982
2022-11-05T07:53:45.781Z,982
2022-11-05T07:54:49.465Z,982
2022-11-05T07:55:54.448Z,982
2022-11-05T07:56:58.632Z,982
2022-11-05T07:58:02.799Z,982
2022-11-05T07:59:07.410Z,982
2022-11-05T08:00:12.094Z,982
2022-11-05T08:01:17.002Z,982
2022-11-05T08:02:21.275Z,982
2022-11-05T08:03:25.890Z,982
2022-11-05T08:04:30.224Z,982
2022-11-05T08:05:34.267Z,982
2022-11-05T08:06:38.407Z,982
2022-11-05T08:07:43.003Z,983
2022-11-05T08:08:47.553Z,983
2022-11-05T08:09:51.695Z,983
2022-11-05T08:10:55.839Z,983
2022-11-05T08:12:03.474Z,983
2022-11-05T08:13:07.667Z,983
2022-11-05T08:14:12.247Z,983
2022-11-05T08:15:16.882Z,983
2022-11-05T08:16:21.266Z,983
2022-11-05T08:17:26.501Z,983
2022-11-05T08:18:31.129Z,983
2022-11-05T08:19:35.588Z,983
2022-11-05T08:20:40.224Z,983
2022-11-05T08:21:44.682Z,983
2022-11-05T08:22:49.258Z,983
2022-11-05T08:23:53.906Z,983
2022-11-05T08:25:02.705Z,983
2022-11-05T08:26:03.069Z,983
2022-11-05T08:27:07.747Z,983
2022-11-05T08:28:12.297Z,983
2022-11-05T08:29:17.762Z,983
2022-11-05T08:30:22.167Z,983
2022-11-05T08:31:26.866Z,983
2022-11-05T08:32:31.466Z,983
2022-11-05T08:33:35.976Z,983
2022-11-05T08:34:40.259Z,983
2022-11-05T08:35:44.874Z,983
2022-11-05T08:36:49.330Z,983
2022-11-05T08:37:53.430Z,983
2022-11-05T08:39:00.568Z,983
2022-11-05T08:40:05.196Z,983
2022-11-05T08:41:09.846Z,983
2022-11-05T08:42:14.517Z,983
2022-11-05T08:43:19.015Z,983
2022-11-05T08:44:23.557Z,983
2022-11-05T08:45:28.139Z,983
2022-11-05T08:46:35.417Z,983
2022-11-05T08:47:37.379Z,983
2022-11-05T08:48:41.863Z,983
2022-11-05T08:49:46.173Z,983
2022-11-05T08:50:50.655Z,983
2022-11-05T08:51:55.251Z,983
2022-11-05T08:52:59.801Z,983
2022-11-05T08:54:04.643Z,983
2022-11-05T08:55:09.111Z,983
2022-11-05T08:56:13.606Z,983
2022-11-05T08:57:18.266Z,983
2022-11-05T08:58:22.805Z,983
2022-11-05T08:59:27.242Z,983
2022-11-05T09:00:31.313Z,983
2022-11-05T09:01:35.606Z,983
2022-11-05T09:02:40.036Z,983
2022-11-05T09:03:44.052Z,983
2022-11-05T09:04:48.363Z,983
2022-11-05T09:05:52.754Z,983
2022-11-05T09:06:56.962Z,983
2022-11-05T09:08:01.832Z,983
2022-11-05T09:09:09.242Z,983
2022-11-05T09:10:13.718Z,983
2022-11-05T09:11:18.449Z,983
2022-11-05T09:12:22.738Z,983
2022-11-05T09:13:27.739Z,983
2022-11-05T09:14:32.270Z,983
2022-11-05T09:15:36.525Z,983
2022-11-05T09:16:41.131Z,983
2022-11-05T09:17:45.766Z,983
2022-11-05T09:18:50.444Z,983
2022-11-05T09:19:54.957Z,983
2022-11-05T09:20:59.509Z,983
2022-11-05T09:22:04.129Z,983
2022-11-05T09:23:09.003Z,983
2022-11-05T09:24:13.533Z,983
2022-11-05T09:25:17.959Z,983
2022-11-05T09:26:22.281Z,983
2022-11-05T09:27:26.461Z,983
2022-11-05T09:28:30.989Z,983
2022-11-05T09:29:35.166Z,983
2022-11-05T09:30:39.685Z,983
2022-11-05T09:31:44.319Z,983
2022-11-05T09:32:48.973Z,983
2022-11-05T09:33:53.510Z,983
2022-11-05T09:34:58.118Z,983
2022-11-05T09:36:02.762Z,983
2022-11-05T09:37:07.253Z,983
2022-11-05T09:38:11.965Z,983
2022-11-05T09:39:16.558Z,983
2022-11-05T09:40:21.305Z,983
2022-11-05T09:41:25.493Z,983
2022-11-05T09:42:32.687Z,983
2022-11-05T09:43:37.329Z,983
2022-11-05T09:44:42.066Z,983
2022-11-05T09:45:48.993Z,983
2022-11-05T09:46:53.192Z,983
2022-11-05T09:47:57.681Z,983
2022-11-05T09:49:02.381Z,983
2022-11-05T09:50:06.998Z,983
2022-11-05T09:51:16.861Z,983
2022-11-05T09:52:18.725Z,983
2022-11-05T09:53:28.279Z,983
2022-11-05T09:54:32.802Z,983
2022-11-05T09:55:37.300Z,983
2022-11-05T09:56:44.525Z,983
2022-11-05T09:57:48.816Z,983
2022-11-05T09:58:56.078Z,983
2022-11-05T10:00:05.886Z,983
2022-11-05T10:01:10.878Z,983
2022-11-05T10:02:15.854Z,983
2022-11-05T10:03:20.257Z,983
2022-11-05T10:04:24.742Z,983
2022-11-05T10:05:29.064Z,983
2022-11-05T10:06:33.537Z,983
2022-11-05T10:07:38.065Z,983
2022-11-05T10:08:45.317Z,983
2022-11-05T10:09:52.456Z,983
2022-11-05T10:10:59.687Z,983
2022-11-05T10:12:12.233Z,983
2022-11-05T10:13:16.436Z,983
2022-11-05T10:14:30.996Z,983
2022-11-05T10:15:35.212Z,983
2022-11-05T10:16:39.709Z,984
2022-11-05T10:17:43.901Z,984
2022-11-05T10:18:51.332Z,984
2022-11-05T10:19:55.680Z,984
2022-11-05T10:21:07.831Z,984
2022-11-05T10:22:17.145Z,984
2022-11-05T10:23:21.558Z,984
2022-11-05T10:24:26.140Z,984
2022-11-05T10:25:30.768Z,984
2022-11-05T10:26:35.437Z,984
2022-11-05T10:27:40.061Z,984
2022-11-05T10:28:44.557Z,984
2022-11-05T10:29:49.160Z,984
2022-11-05T10:30:53.222Z,984
2022-11-05T10:31:57.882Z,984
2022-11-05T10:33:02.474Z,984
2022-11-05T10:34:06.941Z,984
2022-11-05T10:35:11.605Z,984
2022-11-05T10:36:16.095Z,984
2022-11-05T10:37:26.329Z,984
2022-11-05T10:38:30.900Z,984
2022-11-05T10:39:35.486Z,984
2022-11-05T10:40:40.146Z,984
2022-11-05T10:41:54.933Z,984
2022-11-05T10:43:07.241Z,984
2022-11-05T10:44:18.911Z,984
2022-11-05T10:45:26.327Z,984
2022-11-05T10:46:41.635Z,984
2022-11-05T10:47:45.765Z,984
2022-11-05T10:49:00.605Z,984
2022-11-05T10:50:05.089Z,984
2022-11-05T10:51:09.753Z,984
2022-11-05T10:52:14.766Z,984
2022-11-05T10:53:22.044Z,984
2022-11-05T10:54:31.485Z,984
2022-11-05T10:55:36.052Z,984
2022-11-05T10:56:43.305Z,984
2022-11-05T10:57:48.393Z,984
2022-11-05T10:58:52.974Z,984
2022-11-05T10:59:57.579Z,984
2022-11-05T11:01:12.402Z,984
2022-11-05T11:02:17.000Z,984
2022-11-05T11:03:21.422Z,984
2022-11-05T11:04:37.999Z,984
2022-11-05T11:05:40.785Z,984
2022-11-05T11:06:45.381Z,984
2022-11-05T11:07:52.649Z,984
2022-11-05T11:08:57.118Z,984
2022-11-05T11:10:01.822Z,984
2022-11-05T11:11:06.301Z,984
2022-11-05T11:12:10.906Z,984
2022-11-05T11:13:15.466Z,984
2022-11-05T11:14:19.746Z,984
2022-11-05T11:15:24.014Z,984
2022-11-05T11:16:28.766Z,984
2022-11-05T11:17:33.245Z,984
2022-11-05T11:18:40.158Z,984
2022-11-05T11:19:42.345Z,984
2022-11-05T11:20:46.440Z,984
2022-11-05T11:21:51.090Z,984
2022-11-05T11:23:05.854Z,984
2022-11-05T11:24:15.394Z,984
2022-11-05T11:25:19.713Z,984
2022-11-05T11:26:24.021Z,984
2022-11-05T11:27:33.913Z,984
2022-11-05T11:28:38.563Z,984
2022-11-05T11:29:49.300Z,984
2022-11-05T11:30:50.102Z,984
2022-11-05T11:31:54.426Z,984
2022-11-05T11:32:58.841Z,984
2022-11-05T11:34:05.959Z,984
2022-11-05T11:35:13.082Z,984
2022-11-05T11:36:23.676Z,984
2022-11-05T11:37:27.785Z,984
2022-11-05T11:38:32.408Z,984
2022-11-05T11:39:37.017Z,984
2022-11-05T11:40:41.638Z,984
2022-11-05T11:41:46.118Z,984
2022-11-05T11:42:50.293Z,984
2022-11-05T11:43:54.867Z,984
2022-11-05T11:45:02.514Z,984
2022-11-05T11:46:11.180Z,984
2022-11-05T11:47:14.261Z,984
2022-11-05T11:48:18.913Z,984
2022-11-05T11:49:23.301Z,984
2022-11-05T11:50:33.239Z,984
2022-11-05T11:51:46.859Z,984
2022-11-05T11:52:48.409Z,984
2022-11-05T11:53:53.029Z,984
2022-11-05T11:54:58.518Z,984
2022-11-05T11:56:12.003Z,984
2022-11-05T11:57:16.537Z,984
2022-11-05T11:58:26.116Z,984
2022-11-05T12:00:02.297Z,984
2022-11-05T12:00:40.557Z,984
2022-11-05T12:01:45.033Z,984
2022-11-05T12:02:58.760Z,984
2022-11-05T12:04:07.630Z,984
2022-11-05T12:05:17.261Z,984
2022-11-05T12:06:26.726Z,984
2022-11-05T12:07:36.577Z,984
2022-11-05T12:08:54.276Z,984
2022-11-05T12:09:59.331Z,984
2022-11-05T12:11:09.009Z,984
2022-11-05T12:12:18.875Z,984
2022-11-05T12:13:23.201Z,984
2022-11-05T12:14:33.023Z,984
2022-11-05T12:15:42.690Z,984
2022-11-05T12:16:50.397Z,984
2022-11-05T12:18:05.113Z,984
2022-11-05T12:19:14.798Z,984
2022-11-05T12:20:19.401Z,984
2022-11-05T12:21:51.229Z,984
2022-11-05T12:22:43.649Z,984
2022-11-05T12:23:58.609Z,984
2022-11-05T12:25:10.790Z,984
2022-11-05T12:26:18.142Z,984
2022-11-05T12:27:28.047Z,984
2022-11-05T12:29:04.989Z,984
2022-11-05T12:29:52.454Z,984
2022-11-05T12:31:07.377Z,984
2022-11-05T12:32:17.086Z,984
2022-11-05T12:33:26.461Z,984
2022-11-05T12:34:36.333Z,984
2022-11-05T12:35:53.417Z,984
2022-11-05T12:36:56.646Z,984
2022-11-05T12:38:09.330Z,984
2022-11-05T12:39:19.105Z,984
2022-11-05T12:40:28.552Z,984
2022-11-05T12:41:38.978Z,984
2022-11-05T12:42:53.697Z,984
2022-11-05T12:44:06.353Z,984
2022-11-05T12:45:21.249Z,984
2022-11-05T12:46:30.738Z,984
2022-11-05T12:47:37.921Z,984
2022-11-05T12:48:50.682Z,984
2022-11-05T12:50:02.811Z,984
2022-11-05T12:51:12.781Z,984
2022-11-05T12:52:17.197Z,984
2022-11-05T12:53:26.621Z,984
2022-11-05T12:54:36.085Z,984
2022-11-05T12:55:48.670Z,984
2022-11-05T12:56:50.145Z,984
2022-11-05T12:57:54.218Z,984
2022-11-05T12:58:58.469Z,984
2022-11-05T13:00:08.296Z,984
2022-11-05T13:01:15.885Z,985
2022-11-05T13:02:25.365Z,985
2022-11-05T13:03:39.979Z,984
2022-11-05T13:04:49.895Z,985
2022-11-05T13:05:54.354Z,985
2022-11-05T13:06:58.961Z,985
2022-11-05T13:08:03.553Z,985
2022-11-05T13:09:13.279Z,985
2022-11-05T13:10:17.848Z,985
2022-11-05T13:11:27.426Z,985
2022-11-05T13:12:34.569Z,985
2022-11-05T13:13:39.201Z,985
2022-11-05T13:14:43.680Z,985
2022-11-05T13:15:53.345Z,985
2022-11-05T13:17:00.568Z,985
2022-11-05T13:18:10.176Z,985
2022-11-05T13:19:14.384Z,985
2022-11-05T13:20:28.769Z,985
2022-11-05T13:21:32.987Z,985
2022-11-05T13:22:37.552Z,985
2022-11-05T13:23:47.181Z,985
2022-11-05T13:24:54.258Z,985
2022-11-05T13:25:59.131Z,985
2022-11-05T13:27:06.625Z,985
2022-11-05T13:28:16.169Z,985
2022-11-05T13:29:30.824Z,985
2022-11-05T13:30:34.957Z,985
2022-11-05T13:31:39.134Z,985
2022-11-05T13:32:43.673Z,985
2022-11-05T13:33:48.369Z,985
2022-11-05T13:34:53.323Z,985
2022-11-05T13:35:57.541Z,985
2022-11-05T13:37:14.841Z,985
2022-11-05T13:38:24.394Z,985
2022-11-05T13:39:34.062Z,985
2022-11-05T13:40:43.785Z,985
2022-11-05T13:41:56.177Z,985
2022-11-05T13:43:11.162Z,985
2022-11-05T13:44:23.713Z,985
2022-11-05T13:45:33.182Z,985
2022-11-05T13:46:47.905Z,985
2022-11-05T13:48:02.641Z,985
2022-11-05T13:49:17.572Z,985
2022-11-05T13:50:22.274Z,985
2022-11-05T13:51:39.265Z,985
2022-11-05T13:52:51.589Z,985
2022-11-05T13:54:01.205Z,985
2022-11-05T13:55:13.549Z,985
2022-11-05T13:56:25.578Z,985
2022-11-05T13:57:40.408Z,985
2022-11-05T13:58:50.272Z,985
2022-11-05T14:00:00.856Z,985
2022-11-05T14:01:08.011Z,985
2022-11-05T14:02:17.681Z,985
2022-11-05T14:03:21.729Z,985
2022-11-05T14:04:26.125Z,985
2022-11-05T14:05:33.256Z,985
2022-11-05T14:06:37.826Z,985
2022-11-05T14:07:42.371Z,985
2022-11-05T14:08:46.534Z,985
2022-11-05T14:09:51.157Z,985
2022-11-05T14:11:00.800Z,985
2022-11-05T14:12:05.417Z,985
2022-11-05T14:13:20.245Z,985
2022-11-05T14:14:24.675Z,985
2022-11-05T14:15:29.216Z,985
2022-11-05T14:16:33.888Z,985
2022-11-05T14:17:41.486Z,985
2022-11-05T14:18:53.674Z,985
2022-11-05T14:20:08.405Z,985
2022-11-05T14:21:23.338Z,985
2022-11-05T14:22:27.853Z,985
2022-11-05T14:23:32.360Z,985
2022-11-05T14:24:42.144Z,985
2022-11-05T14:25:46.633Z,985
2022-11-05T14:26:53.879Z,985
2022-11-05T14:28:01.588Z,985
2022-11-05T14:29:06.060Z,985
2022-11-05T14:30:10.721Z,985
2022-11-05T14:31:41.358Z,986
2022-11-05T14:32:34.965Z,986
2022-11-05T14:33:42.793Z,986
2022-11-05T14:34:53.416Z,986
2022-11-05T14:36:03.112Z,986
2022-11-05T14:37:17.877Z,986
2022-11-05T14:38:22.762Z,986
2022-11-05T14:39:26.916Z,986
2022-11-05T14:40:31.629Z,986
2022-11-05T14:41:41.138Z,986
2022-11-05T14:42:53.916Z,986
2022-11-05T14:43:58.661Z,986
2022-11-05T14:45:03.092Z,986
2022-11-05T14:46:17.813Z,986
2022-11-05T14:47:21.833Z,986
2022-11-05T14:48:26.390Z,986
2022-11-05T14:49:36.560Z,986
2022-11-05T14:50:40.988Z,986
2022-11-05T14:51:45.362Z,986
2022-11-05T14:52:52.584Z,986
2022-11-05T14:53:56.994Z,986
2022-11-05T14:55:09.100Z,986
2022-11-05T14:56:13.634Z,986
2022-11-05T14:57:17.721Z,986
2022-11-05T14:58:32.483Z,986
2022-11-05T14:59:37.016Z,986
2022-11-05T15:00:46.680Z,986
2022-11-05T15:01:51.462Z,986
2022-11-05T15:02:55.868Z,986
2022-11-05T15:04:02.942Z,986
2022-11-05T15:05:17.671Z,986
2022-11-05T15:06:29.902Z,986
2022-11-05T15:07:34.476Z,986
2022-11-05T15:08:39.118Z,986
2022-11-05T15:09:49.258Z,986
2022-11-05T15:10:53.988Z,986
2022-11-05T15:12:08.621Z,986
2022-11-05T15:13:20.951Z,986
2022-11-05T15:14:28.205Z,986